createdAt,value
2019-05-14T00:02:12.279Z,11.64
2019-05-14T00:07:13.432Z,11.54
2019-05-14T00:12:15.883Z,11.47
2019-05-14T00:17:18.329Z,11.42
2019-05-14T00:22:21.833Z,11.39
2019-05-14T00:27:23.226Z,11.34
2019-05-14T00:32:25.694Z,11.31
2019-05-14T00:37:28.142Z,11.19
2019-05-14T00:42:31.907Z,11.07
2019-05-14T00:47:33.047Z,11.01
2019-05-14T00:52:35.501Z,11.02
2019-05-14T00:57:37.956Z,10.95
2019-05-14T01:02:41.565Z,11.00
2019-05-14T01:07:42.870Z,10.81
2019-05-14T01:12:45.333Z,10.64
2019-05-14T01:17:47.786Z,10.38
2019-05-14T01:22:51.650Z,10.12
2019-05-14T01:27:52.712Z,9.79
2019-05-14T01:32:55.163Z,9.54
2019-05-14T01:37:57.621Z,9.24
2019-05-14T01:43:02.392Z,8.87
2019-05-14T01:48:02.549Z,8.72
2019-05-14T01:53:05.011Z,8.60
2019-05-14T01:58:07.471Z,8.64
2019-05-14T02:03:11.965Z,8.65
2019-05-14T02:08:12.402Z,8.52
2019-05-14T02:13:14.862Z,8.36
2019-05-14T02:18:17.319Z,8.30
2019-05-14T02:23:19.775Z,8.15
2019-05-14T02:28:22.314Z,8.19
2019-05-14T02:33:24.702Z,8.06
2019-05-14T02:38:30.030Z,8.00
2019-05-14T02:43:29.745Z,7.92
2019-05-14T02:48:32.090Z,7.87
2019-05-14T02:53:34.554Z,7.69
2019-05-14T02:58:40.007Z,7.81
2019-05-14T03:03:40.423Z,7.68
2019-05-14T03:08:42.045Z,7.51
2019-05-14T03:13:44.476Z,7.51
2019-05-14T03:18:49.924Z,7.30
2019-05-14T03:23:50.072Z,7.46
2019-05-14T03:28:52.537Z,7.56
2019-05-14T03:33:55.027Z,7.58
2019-05-14T03:38:59.336Z,7.54
2019-05-14T03:44:00.323Z,7.55
2019-05-14T03:49:02.388Z,7.69
2019-05-14T03:54:07.885Z,7.89
2019-05-14T03:59:09.599Z,8.14
2019-05-14T04:04:10.324Z,8.25
2019-05-14T04:09:12.233Z,8.40
2019-05-14T04:14:14.700Z,8.67
2019-05-14T04:19:19.008Z,8.69
2019-05-14T04:24:20.155Z,8.78
2019-05-14T04:29:22.118Z,8.82
2019-05-14T04:34:24.586Z,8.78
2019-05-14T04:39:30.442Z,9.02
2019-05-14T04:44:29.960Z,9.15
2019-05-14T04:49:31.988Z,9.27
2019-05-14T04:54:34.443Z,9.43
2019-05-14T04:59:39.692Z,9.50
2019-05-14T05:04:41.241Z,9.62
2019-05-14T05:09:41.863Z,9.83
2019-05-14T05:14:44.325Z,9.89
2019-05-14T05:19:51.215Z,10.05
2019-05-14T05:24:49.267Z,10.32
2019-05-14T05:29:51.729Z,10.59
2019-05-14T05:34:54.208Z,10.88
2019-05-14T05:39:58.443Z,11.24
2019-05-14T05:45:00.492Z,11.56
2019-05-14T05:50:02.947Z,11.88
2019-05-14T05:55:05.463Z,12.65
2019-05-14T06:00:09.390Z,14.38
2019-05-14T06:05:10.402Z,15.48
2019-05-14T06:10:12.880Z,15.73
2019-05-14T06:15:15.345Z,16.40
2019-05-14T06:20:18.986Z,16.51
2019-05-14T06:25:21.170Z,16.90
2019-05-14T06:30:31.653Z,16.94
2019-05-14T06:35:34.119Z,17.30
2019-05-14T06:40:39.278Z,17.29
2019-05-14T06:45:39.307Z,17.19
2019-05-14T06:50:41.542Z,17.83
2019-05-14T06:55:44.027Z,17.77
2019-05-14T07:00:46.496Z,17.96
2019-05-14T07:05:49.412Z,18.13
2019-05-14T07:10:51.523Z,18.16
2019-05-14T07:15:53.987Z,18.36
2019-05-14T07:20:58.672Z,18.55
2019-05-14T07:25:59.088Z,18.34
2019-05-14T07:31:01.391Z,18.48
2019-05-14T07:36:03.864Z,18.60
2019-05-14T07:41:08.954Z,18.84
2019-05-14T07:46:08.840Z,18.88
2019-05-14T07:51:11.314Z,19.17
2019-05-14T07:56:13.809Z,19.39
2019-05-14T08:01:18.517Z,19.52
2019-05-14T08:06:19.194Z,19.40
2019-05-14T08:11:21.196Z,19.91
2019-05-14T08:16:23.681Z,20.24
2019-05-14T08:21:28.331Z,21.41
2019-05-14T08:26:29.310Z,23.05
2019-05-14T08:31:31.108Z,31.93
2019-05-14T08:36:33.562Z,40.96
2019-05-14T08:41:38.282Z,46.35
2019-05-14T08:46:39.006Z,47.35
2019-05-14T08:51:40.975Z,50.12
2019-05-14T08:56:43.434Z,50.47
2019-05-14T09:02:00.876Z,51.08
2019-05-14T09:06:48.890Z,50.06
2019-05-14T09:11:50.841Z,48.36
2019-05-14T09:16:53.440Z,51.37
2019-05-14T09:21:58.622Z,50.36
2019-05-14T09:26:59.255Z,38.24
2019-05-14T09:32:00.933Z,33.21
2019-05-14T09:37:03.363Z,42.89
2019-05-14T09:42:07.954Z,38.69
2019-05-14T09:47:08.691Z,31.76
2019-05-14T09:52:10.652Z,28.17
2019-05-14T09:57:13.141Z,36.68
2019-05-14T10:02:15.564Z,48.53
2019-05-14T10:07:18.013Z,40.75
2019-05-14T10:12:20.502Z,35.90
2019-05-14T10:17:22.993Z,38.73
2019-05-14T10:22:25.446Z,31.96
2019-05-14T10:27:28.454Z,29.76
2019-05-14T10:32:30.379Z,27.10
2019-05-14T10:37:32.862Z,26.15
2019-05-14T10:42:35.344Z,25.10
2019-05-14T10:47:38.870Z,24.38
2019-05-14T10:52:40.292Z,24.50
2019-05-14T10:57:42.750Z,24.72
2019-05-14T11:02:45.225Z,23.05
2019-05-14T11:07:48.336Z,23.05
2019-05-14T11:12:52.788Z,24.77
2019-05-14T11:17:52.619Z,27.95
2019-05-14T11:22:55.080Z,24.76
2019-05-14T11:27:58.670Z,23.04
2019-05-14T11:33:00.023Z,24.07
2019-05-14T11:38:02.517Z,29.85
2019-05-14T11:43:05.056Z,37.44
2019-05-14T11:48:08.899Z,39.28
2019-05-14T11:53:10.040Z,42.71
2019-05-14T11:58:12.502Z,44.29
2019-05-14T12:03:15.028Z,37.93
2019-05-14T12:08:18.560Z,29.37
2019-05-14T12:13:19.986Z,25.86
2019-05-14T12:18:22.443Z,23.84
2019-05-14T12:23:24.903Z,23.25
2019-05-14T12:28:29.181Z,26.75
2019-05-14T12:33:31.418Z,25.17
2019-05-14T12:38:32.303Z,37.16
2019-05-14T12:43:34.782Z,38.54
2019-05-14T12:48:38.960Z,37.27
2019-05-14T12:53:39.805Z,29.92
2019-05-14T12:58:45.708Z,27.93
2019-05-14T13:03:44.594Z,23.37
2019-05-14T13:08:49.130Z,21.50
2019-05-14T13:13:49.655Z,23.16
2019-05-14T13:18:52.112Z,21.82
2019-05-14T13:23:54.566Z,19.69
2019-05-14T13:28:58.955Z,20.64
2019-05-14T13:33:59.703Z,22.18
2019-05-14T13:39:02.016Z,22.52
2019-05-14T13:44:18.449Z,19.88
2019-05-14T13:49:06.975Z,21.78
2019-05-14T13:54:09.433Z,24.57
2019-05-14T13:59:11.942Z,25.24
2019-05-14T14:04:15.254Z,24.61
2019-05-14T14:09:16.888Z,23.38
2019-05-14T14:14:20.093Z,22.84
2019-05-14T14:19:21.846Z,20.28
2019-05-14T14:24:24.319Z,19.01
2019-05-14T14:29:26.774Z,18.74
2019-05-14T14:34:29.247Z,19.54
2019-05-14T14:39:31.738Z,19.38
2019-05-14T14:44:34.311Z,20.05
2019-05-14T14:49:42.274Z,21.31
2019-05-14T14:54:39.365Z,19.88
2019-05-14T14:59:41.824Z,19.23
2019-05-14T15:04:44.316Z,18.40
2019-05-14T15:09:48.735Z,17.94
2019-05-14T15:14:49.281Z,18.18
2019-05-14T15:19:51.755Z,17.75
2019-05-14T15:24:55.145Z,18.15
2019-05-14T15:29:59.375Z,19.50
2019-05-14T15:35:00.108Z,18.92
2019-05-14T15:45:04.347Z,17.79
2019-05-14T15:50:09.168Z,17.65
2019-05-14T15:55:09.405Z,18.04
2019-05-14T16:00:11.899Z,18.36
2019-05-14T16:05:14.344Z,18.40
2019-05-14T16:10:16.844Z,17.70
2019-05-14T16:15:19.318Z,17.15
2019-05-14T16:20:21.803Z,16.96
2019-05-14T16:25:24.300Z,17.30
2019-05-14T16:30:28.951Z,17.56
2019-05-14T16:35:29.272Z,17.66
2019-05-14T16:40:31.746Z,17.65
2019-05-14T16:45:34.204Z,17.24
2019-05-14T16:50:36.677Z,16.98
2019-05-14T16:55:39.136Z,16.83
2019-05-14T17:00:41.621Z,16.68
2019-05-14T17:05:44.080Z,16.46
2019-05-14T17:10:48.239Z,16.45
2019-05-14T17:15:49.020Z,16.43
2019-05-14T17:20:51.529Z,16.26
2019-05-14T17:25:54.002Z,16.08
2019-05-14T17:30:56.453Z,15.78
2019-05-14T17:35:59.057Z,15.64
2019-05-14T17:41:01.390Z,15.40
2019-05-14T17:46:03.882Z,15.26
2019-05-14T17:51:09.129Z,15.20
2019-05-14T17:56:08.834Z,15.14
2019-05-14T18:01:11.317Z,15.04
2019-05-14T18:06:14.045Z,14.92
2019-05-14T18:11:18.943Z,14.80
2019-05-14T18:16:19.353Z,14.72
2019-05-14T18:21:21.472Z,14.56
2019-05-14T18:26:23.959Z,14.41
2019-05-14T18:31:26.475Z,14.31
2019-05-14T18:36:28.948Z,14.20
2019-05-14T18:41:31.417Z,14.03
2019-05-14T18:46:33.879Z,13.88
2019-05-14T18:51:36.375Z,13.82
2019-05-14T18:56:38.872Z,13.77
2019-05-14T19:01:41.329Z,13.65
2019-05-14T19:06:43.819Z,13.57
2019-05-14T19:11:48.216Z,13.41
2019-05-14T19:16:49.125Z,13.34
2019-05-14T19:21:51.268Z,13.30
2019-05-14T19:26:53.775Z,13.20
2019-05-14T19:31:56.236Z,13.06
2019-05-14T19:36:58.746Z,13.02
2019-05-14T19:42:01.230Z,12.98
2019-05-14T19:47:03.923Z,12.84
2019-05-14T19:52:08.238Z,12.74
2019-05-14T19:57:09.949Z,12.61
2019-05-14T20:02:11.471Z,12.44
2019-05-14T20:07:13.939Z,12.33
2019-05-14T20:12:18.238Z,12.24
2019-05-14T20:17:19.511Z,12.22
2019-05-14T20:22:21.352Z,12.14
2019-05-14T20:27:23.814Z,12.15
2019-05-14T20:32:26.282Z,12.13
2019-05-14T20:37:29.192Z,12.11
2019-05-14T20:42:31.297Z,12.07
2019-05-14T20:47:33.776Z,12.00
2019-05-14T20:52:36.239Z,12.04
2019-05-14T20:57:38.851Z,11.95
2019-05-14T21:02:41.170Z,11.93
2019-05-14T21:07:43.878Z,11.98
2019-05-14T21:12:48.671Z,11.96
2019-05-14T21:17:50.445Z,11.95
2019-05-14T21:22:51.080Z,11.98
2019-05-14T21:27:53.529Z,11.93
2019-05-14T21:32:56.056Z,11.91
2019-05-14T21:37:59.296Z,11.84
2019-05-14T21:43:00.967Z,11.89
2019-05-14T21:48:03.480Z,11.86
2019-05-14T21:53:08.207Z,11.84
2019-05-14T21:58:09.064Z,11.59
2019-05-14T22:03:10.893Z,11.45
2019-05-14T22:08:13.421Z,11.47
2019-05-14T22:13:18.064Z,11.33
2019-05-14T22:18:20.691Z,11.19
2019-05-14T22:23:21.200Z,11.11
2019-05-14T22:28:23.310Z,11.09
2019-05-14T22:33:25.776Z,10.96
2019-05-14T22:38:29.300Z,10.76
2019-05-14T22:43:30.683Z,10.72
2019-05-14T22:48:33.143Z,10.58
2019-05-14T22:53:35.624Z,10.52
2019-05-14T22:58:38.498Z,10.16
2019-05-14T23:03:40.561Z,10.15
2019-05-14T23:08:43.003Z,9.79
2019-05-14T23:13:45.449Z,9.89
2019-05-14T23:18:48.755Z,9.97
2019-05-14T23:23:50.600Z,9.43
2019-05-14T23:28:53.052Z,9.34
2019-05-14T23:33:55.509Z,9.30
2019-05-14T23:38:59.089Z,8.97
2019-05-14T23:44:00.399Z,9.14
2019-05-14T23:49:02.858Z,8.91
2019-05-14T23:54:05.320Z,9.04
2019-05-14T23:59:09.365Z,8.93
